sensor_id;sensor_type;location;lat;lon;timestamp;P1;durP1;ratioP1;P2;durP2;ratioP2
60641;SDS011;46837;52.446;-1.930;2022-11-20T00:00:07;9.66;;;4.16;;
60641;SDS011;46837;52.446;-1.930;2022-11-20T00:01:08;11.48;;;4.48;;
60641;SDS011;46837;52.446;-1.930;2022-11-20T00:02:07;14.54;;;6.38;;
60641;SDS011;46837;52.446;-1.930;2022-11-20T00:03:07;12.80;;;5.24;;
60641;SDS011;46837;52.446;-1.930;2022-11-20T00:04:08;14.08;;;4.88;;
60641;SDS011;46837;52.446;-1.930;2022-11-20T00:05:07;17.78;;;4.50;;
60641;SDS011;46837;52.446;-1.930;2022-11-20T00:06:08;11.02;;;5.02;;
60641;SDS011;46837;52.446;-1.930;2022-11-20T00:07:07;14.14;;;5.38;;
60641;SDS011;46837;52.446;-1.930;2022-11-20T00:08:07;20.04;;;5.64;;
60641;SDS011;46837;52.446;-1.930;2022-11-20T00:09:09;15.04;;;5.74;;
60641;SDS011;46837;52.446;-1.930;2022-11-20T00:10:07;11.52;;;4.40;;
60641;SDS011;46837;52.446;-1.930;2022-11-20T00:11:08;9.20;;;4.82;;
60641;SDS011;46837;52.446;-1.930;2022-11-20T00:12:07;11.28;;;4.90;;
60641;SDS011;46837;52.446;-1.930;2022-11-20T00:13:07;10.66;;;4.20;;
60641;SDS011;46837;52.446;-1.930;2022-11-20T00:14:08;14.92;;;5.22;;
60641;SDS011;46837;52.446;-1.930;2022-11-20T00:15:07;14.38;;;5.52;;
60641;SDS011;46837;52.446;-1.930;2022-11-20T00:16:08;14.32;;;4.86;;
60641;SDS011;46837;52.446;-1.930;2022-11-20T00:17:07;14.88;;;5.72;;
60641;SDS011;46837;52.446;-1.930;2022-11-20T00:18:07;16.38;;;5.40;;
60641;SDS011;46837;52.446;-1.930;2022-11-20T00:19:07;20.82;;;5.76;;
60641;SDS011;46837;52.446;-1.930;2022-11-20T00:20:07;14.40;;;5.40;;
60641;SDS011;46837;52.446;-1.930;2022-11-20T00:21:09;14.36;;;5.16;;
60641;SDS011;46837;52.446;-1.930;2022-11-20T00:22:07;10.74;;;4.50;;
60641;SDS011;46837;52.446;-1.930;2022-11-20T00:23:07;11.40;;;5.34;;
60641;SDS011;46837;52.446;-1.930;2022-11-20T00:24:09;13.30;;;5.60;;
60641;SDS011;46837;52.446;-1.930;2022-11-20T00:25:07;15.08;;;5.62;;
60641;SDS011;46837;52.446;-1.930;2022-11-20T00:26:08;17.78;;;5.16;;
60641;SDS011;46837;52.446;-1.930;2022-11-20T00:27:07;14.68;;;4.78;;
60641;SDS011;46837;52.446;-1.930;2022-11-20T00:28:07;13.90;;;5.14;;
60641;SDS011;46837;52.446;-1.930;2022-11-20T00:29:08;13.92;;;4.98;;
60641;SDS011;46837;52.446;-1.930;2022-11-20T00:30:07;17.68;;;5.28;;
60641;SDS011;46837;52.446;-1.930;2022-11-20T00:31:08;16.28;;;5.88;;
60641;SDS011;46837;52.446;-1.930;2022-11-20T00:32:07;20.72;;;5.66;;
60641;SDS011;46837;52.446;-1.930;2022-11-20T00:33:07;15.02;;;5.58;;
60641;SDS011;46837;52.446;-1.930;2022-11-20T00:34:07;10.54;;;4.48;;
60641;SDS011;46837;52.446;-1.930;2022-11-20T00:35:07;15.88;;;5.46;;
60641;SDS011;46837;52.446;-1.930;2022-11-20T00:36:16;12.50;;;5.20;;
60641;SDS011;46837;52.446;-1.930;2022-11-20T00:37:07;11.16;;;4.72;;
60641;SDS011;46837;52.446;-1.930;2022-11-20T00:38:07;10.98;;;5.30;;
60641;SDS011;46837;52.446;-1.930;2022-11-20T00:39:07;14.30;;;4.56;;
60641;SDS011;46837;52.446;-1.930;2022-11-20T00:40:07;13.62;;;4.84;;
60641;SDS011;46837;52.446;-1.930;2022-11-20T00:41:08;10.02;;;4.96;;
60641;SDS011;46837;52.446;-1.930;2022-11-20T00:42:07;12.32;;;5.82;;
60641;SDS011;46837;52.446;-1.930;2022-11-20T00:43:07;11.84;;;4.62;;
60641;SDS011;46837;52.446;-1.930;2022-11-20T00:44:07;17.22;;;5.22;;
60641;SDS011;46837;52.446;-1.930;2022-11-20T00:45:07;19.52;;;5.76;;
60641;SDS011;46837;52.446;-1.930;2022-11-20T00:46:07;20.40;;;5.18;;
60641;SDS011;46837;52.446;-1.930;2022-11-20T00:47:07;13.64;;;4.92;;
60641;SDS011;46837;52.446;-1.930;2022-11-20T00:48:07;12.12;;;5.50;;
60641;SDS011;46837;52.446;-1.930;2022-11-20T00:49:07;18.56;;;5.40;;
60641;SDS011;46837;52.446;-1.930;2022-11-20T00:50:07;7.98;;;4.46;;
60641;SDS011;46837;52.446;-1.930;2022-11-20T00:51:07;10.68;;;4.28;;
60641;SDS011;46837;52.446;-1.930;2022-11-20T00:52:07;17.08;;;5.64;;
60641;SDS011;46837;52.446;-1.930;2022-11-20T00:53:07;11.66;;;4.16;;
60641;SDS011;46837;52.446;-1.930;2022-11-20T00:54:07;8.92;;;3.76;;
60641;SDS011;46837;52.446;-1.930;2022-11-20T00:55:07;19.72;;;4.94;;
60641;SDS011;46837;52.446;-1.930;2022-11-20T00:56:07;8.04;;;3.82;;
60641;SDS011;46837;52.446;-1.930;2022-11-20T00:57:07;6.70;;;3.38;;
60641;SDS011;46837;52.446;-1.930;2022-11-20T00:58:07;8.34;;;3.42;;
60641;SDS011;46837;52.446;-1.930;2022-11-20T00:59:08;12.28;;;3.58;;
60641;SDS011;46837;52.446;-1.930;2022-11-20T01:00:07;8.96;;;3.26;;
60641;SDS011;46837;52.446;-1.930;2022-11-20T01:01:11;8.24;;;3.22;;
60641;SDS011;46837;52.446;-1.930;2022-11-20T01:02:07;8.66;;;2.68;;
60641;SDS011;46837;52.446;-1.930;2022-11-20T01:03:07;12.10;;;3.08;;
60641;SDS011;46837;52.446;-1.930;2022-11-20T01:04:07;11.26;;;3.44;;
60641;SDS011;46837;52.446;-1.930;2022-11-20T01:05:07;10.30;;;3.36;;
60641;SDS011;46837;52.446;-1.930;2022-11-20T01:06:08;6.20;;;3.08;;
60641;SDS011;46837;52.446;-1.930;2022-11-20T01:07:07;8.54;;;4.18;;
60641;SDS011;46837;52.446;-1.930;2022-11-20T01:08:07;10.12;;;3.40;;
60641;SDS011;46837;52.446;-1.930;2022-11-20T01:09:10;15.42;;;2.70;;
60641;SDS011;46837;52.446;-1.930;2022-11-20T01:10:07;13.56;;;3.36;;
60641;SDS011;46837;52.446;-1.930;2022-11-20T01:11:11;5.04;;;3.06;;
60641;SDS011;46837;52.446;-1.930;2022-11-20T01:12:07;11.14;;;3.70;;
60641;SDS011;46837;52.446;-1.930;2022-11-20T01:13:11;14.98;;;3.54;;
60641;SDS011;46837;52.446;-1.930;2022-11-20T01:14:09;9.36;;;3.80;;
60641;SDS011;46837;52.446;-1.930;2022-11-20T01:15:07;6.96;;;2.90;;
60641;SDS011;46837;52.446;-1.930;2022-11-20T01:16:12;12.64;;;4.20;;
60641;SDS011;46837;52.446;-1.930;2022-11-20T01:17:07;14.34;;;3.68;;
60641;SDS011;46837;52.446;-1.930;2022-11-20T01:18:07;9.50;;;3.56;;
60641;SDS011;46837;52.446;-1.930;2022-11-20T01:19:08;12.34;;;4.10;;
60641;SDS011;46837;52.446;-1.930;2022-11-20T01:20:07;7.72;;;3.64;;
60641;SDS011;46837;52.446;-1.930;2022-11-20T01:21:08;11.94;;;3.32;;
60641;SDS011;46837;52.446;-1.930;2022-11-20T01:22:07;12.16;;;3.88;;
60641;SDS011;46837;52.446;-1.930;2022-11-20T01:23:07;12.60;;;3.84;;
60641;SDS011;46837;52.446;-1.930;2022-11-20T01:24:07;10.62;;;3.94;;
60641;SDS011;46837;52.446;-1.930;2022-11-20T01:25:07;12.74;;;3.90;;
60641;SDS011;46837;52.446;-1.930;2022-11-20T01:26:07;10.28;;;3.64;;
60641;SDS011;46837;52.446;-1.930;2022-11-20T01:27:07;12.68;;;4.04;;
60641;SDS011;46837;52.446;-1.930;2022-11-20T01:28:07;7.38;;;3.30;;
60641;SDS011;46837;52.446;-1.930;2022-11-20T01:29:07;15.24;;;4.98;;
60641;SDS011;46837;52.446;-1.930;2022-11-20T01:30:07;13.60;;;4.94;;
60641;SDS011;46837;52.446;-1.930;2022-11-20T01:31:13;11.74;;;4.50;;
60641;SDS011;46837;52.446;-1.930;2022-11-20T01:32:07;13.30;;;4.80;;
60641;SDS011;46837;52.446;-1.930;2022-11-20T01:33:07;12.30;;;3.70;;
60641;SDS011;46837;52.446;-1.930;2022-11-20T01:34:08;12.08;;;4.24;;
60641;SDS011;46837;52.446;-1.930;2022-11-20T01:35:07;8.68;;;3.72;;
60641;SDS011;46837;52.446;-1.930;2022-11-20T01:36:07;14.42;;;4.28;;
60641;SDS011;46837;52.446;-1.930;2022-11-20T01:37:07;9.94;;;4.22;;
60641;SDS011;46837;52.446;-1.930;2022-11-20T01:38:07;11.08;;;4.34;;
60641;SDS011;46837;52.446;-1.930;2022-11-20T01:39:14;10.54;;;4.12;;
60641;SDS011;46837;52.446;-1.930;2022-11-20T01:40:07;13.28;;;4.68;;
60641;SDS011;46837;52.446;-1.930;2022-11-20T01:41:07;12.04;;;3.64;;
60641;SDS011;46837;52.446;-1.930;2022-11-20T01:42:11;13.94;;;4.64;;
60641;SDS011;46837;52.446;-1.930;2022-11-20T01:43:14;12.36;;;3.90;;
60641;SDS011;46837;52.446;-1.930;2022-11-20T01:44:08;12.00;;;4.54;;
60641;SDS011;46837;52.446;-1.930;2022-11-20T01:47:07;12.36;;;3.88;;
60641;SDS011;46837;52.446;-1.930;2022-11-20T01:48:07;13.18;;;4.78;;
60641;SDS011;46837;52.446;-1.930;2022-11-20T01:49:11;10.72;;;4.20;;
60641;SDS011;46837;52.446;-1.930;2022-11-20T01:51:12;14.92;;;3.46;;
60641;SDS011;46837;52.446;-1.930;2022-11-20T01:53:08;13.58;;;3.72;;
60641;SDS011;46837;52.446;-1.930;2022-11-20T01:54:08;8.26;;;3.18;;
60641;SDS011;46837;52.446;-1.930;2022-11-20T01:55:08;14.02;;;4.96;;
60641;SDS011;46837;52.446;-1.930;2022-11-20T01:56:08;11.64;;;4.12;;
60641;SDS011;46837;52.446;-1.930;2022-11-20T01:57:07;7.98;;;3.42;;
60641;SDS011;46837;52.446;-1.930;2022-11-20T01:58:07;9.68;;;3.96;;
60641;SDS011;46837;52.446;-1.930;2022-11-20T01:59:07;7.60;;;3.40;;
60641;SDS011;46837;52.446;-1.930;2022-11-20T02:00:10;9.02;;;2.80;;
60641;SDS011;46837;52.446;-1.930;2022-11-20T02:01:07;4.66;;;2.56;;
60641;SDS011;46837;52.446;-1.930;2022-11-20T02:02:07;11.44;;;3.80;;
60641;SDS011;46837;52.446;-1.930;2022-11-20T02:03:08;12.74;;;4.36;;
60641;SDS011;46837;52.446;-1.930;2022-11-20T02:04:07;8.22;;;3.02;;
60641;SDS011;46837;52.446;-1.930;2022-11-20T02:06:11;10.18;;;3.84;;
60641;SDS011;46837;52.446;-1.930;2022-11-20T02:07:07;8.36;;;3.40;;
60641;SDS011;46837;52.446;-1.930;2022-11-20T02:08:07;10.78;;;3.30;;
60641;SDS011;46837;52.446;-1.930;2022-11-20T02:09:07;5.62;;;3.02;;
60641;SDS011;46837;52.446;-1.930;2022-11-20T02:10:07;12.80;;;3.26;;
60641;SDS011;46837;52.446;-1.930;2022-11-20T02:11:07;8.22;;;2.98;;
60641;SDS011;46837;52.446;-1.930;2022-11-20T02:12:07;11.78;;;3.18;;
60641;SDS011;46837;52.446;-1.930;2022-11-20T02:13:11;12.20;;;3.66;;
60641;SDS011;46837;52.446;-1.930;2022-11-20T02:14:07;6.02;;;3.10;;
60641;SDS011;46837;52.446;-1.930;2022-11-20T02:15:07;9.78;;;3.48;;
60641;SDS011;46837;52.446;-1.930;2022-11-20T02:16:10;8.32;;;3.04;;
60641;SDS011;46837;52.446;-1.930;2022-11-20T02:17:07;8.30;;;3.60;;
60641;SDS011;46837;52.446;-1.930;2022-11-20T02:18:07;11.46;;;2.80;;
60641;SDS011;46837;52.446;-1.930;2022-11-20T02:19:08;11.60;;;2.88;;
60641;SDS011;46837;52.446;-1.930;2022-11-20T02:20:07;10.42;;;2.96;;
60641;SDS011;46837;52.446;-1.930;2022-11-20T02:21:09;9.58;;;2.36;;
60641;SDS011;46837;52.446;-1.930;2022-11-20T02:22:14;8.54;;;3.08;;
60641;SDS011;46837;52.446;-1.930;2022-11-20T02:24:08;7.24;;;2.66;;
60641;SDS011;46837;52.446;-1.930;2022-11-20T02:25:07;4.72;;;2.48;;
60641;SDS011;46837;52.446;-1.930;2022-11-20T02:26:09;9.80;;;2.44;;
60641;SDS011;46837;52.446;-1.930;2022-11-20T02:27:10;5.44;;;2.04;;
60641;SDS011;46837;52.446;-1.930;2022-11-20T02:28:07;6.20;;;2.32;;
60641;SDS011;46837;52.446;-1.930;2022-11-20T02:29:07;8.64;;;2.90;;
60641;SDS011;46837;52.446;-1.930;2022-11-20T02:30:08;6.60;;;2.72;;
60641;SDS011;46837;52.446;-1.930;2022-11-20T02:31:07;8.46;;;2.54;;
60641;SDS011;46837;52.446;-1.930;2022-11-20T02:32:16;9.00;;;2.34;;
60641;SDS011;46837;52.446;-1.930;2022-11-20T02:33:07;8.70;;;2.36;;
60641;SDS011;46837;52.446;-1.930;2022-11-20T02:34:07;8.40;;;2.12;;
60641;SDS011;46837;52.446;-1.930;2022-11-20T02:35:35;4.32;;;2.44;;
60641;SDS011;46837;52.446;-1.930;2022-11-20T02:36:07;5.88;;;2.34;;
60641;SDS011;46837;52.446;-1.930;2022-11-20T02:37:07;6.28;;;2.36;;
60641;SDS011;46837;52.446;-1.930;2022-11-20T02:38:07;5.28;;;1.68;;
60641;SDS011;46837;52.446;-1.930;2022-11-20T02:39:07;9.42;;;2.38;;
60641;SDS011;46837;52.446;-1.930;2022-11-20T02:40:07;5.52;;;2.24;;
60641;SDS011;46837;52.446;-1.930;2022-11-20T02:41:07;3.56;;;1.98;;
60641;SDS011;46837;52.446;-1.930;2022-11-20T02:42:07;3.64;;;1.94;;
60641;SDS011;46837;52.446;-1.930;2022-11-20T02:43:07;4.82;;;2.80;;
60641;SDS011;46837;52.446;-1.930;2022-11-20T02:44:07;8.78;;;2.70;;
60641;SDS011;46837;52.446;-1.930;2022-11-20T02:45:07;11.10;;;2.86;;
60641;SDS011;46837;52.446;-1.930;2022-11-20T02:46:07;7.14;;;3.38;;
60641;SDS011;46837;52.446;-1.930;2022-11-20T02:47:07;5.68;;;2.48;;
60641;SDS011;46837;52.446;-1.930;2022-11-20T02:48:07;9.72;;;3.34;;
60641;SDS011;46837;52.446;-1.930;2022-11-20T02:49:07;12.90;;;3.42;;
60641;SDS011;46837;52.446;-1.930;2022-11-20T02:50:07;7.56;;;2.62;;
60641;SDS011;46837;52.446;-1.930;2022-11-20T02:51:07;8.16;;;2.82;;
60641;SDS011;46837;52.446;-1.930;2022-11-20T02:52:07;7.26;;;2.84;;
60641;SDS011;46837;52.446;-1.930;2022-11-20T02:53:07;10.40;;;3.00;;
60641;SDS011;46837;52.446;-1.930;2022-11-20T02:54:07;6.72;;;2.50;;
60641;SDS011;46837;52.446;-1.930;2022-11-20T02:55:07;6.16;;;2.44;;
60641;SDS011;46837;52.446;-1.930;2022-11-20T02:56:07;10.44;;;3.12;;
60641;SDS011;46837;52.446;-1.930;2022-11-20T02:57:07;7.22;;;2.18;;
60641;SDS011;46837;52.446;-1.930;2022-11-20T02:58:07;11.14;;;3.54;;
60641;SDS011;46837;52.446;-1.930;2022-11-20T02:59:07;4.82;;;2.90;;
60641;SDS011;46837;52.446;-1.930;2022-11-20T03:00:07;7.52;;;4.28;;
60641;SDS011;46837;52.446;-1.930;2022-11-20T03:01:07;6.44;;;2.56;;
60641;SDS011;46837;52.446;-1.930;2022-11-20T03:02:07;7.58;;;3.34;;
60641;SDS011;46837;52.446;-1.930;2022-11-20T03:03:07;6.20;;;2.62;;
60641;SDS011;46837;52.446;-1.930;2022-11-20T03:04:07;7.02;;;2.20;;
60641;SDS011;46837;52.446;-1.930;2022-11-20T03:05:07;5.54;;;2.16;;
60641;SDS011;46837;52.446;-1.930;2022-11-20T03:06:07;4.74;;;2.38;;
60641;SDS011;46837;52.446;-1.930;2022-11-20T03:07:07;6.30;;;1.86;;
60641;SDS011;46837;52.446;-1.930;2022-11-20T03:08:07;7.88;;;3.68;;
60641;SDS011;46837;52.446;-1.930;2022-11-20T03:09:07;5.52;;;2.92;;
60641;SDS011;46837;52.446;-1.930;2022-11-20T03:10:07;4.10;;;2.60;;
60641;SDS011;46837;52.446;-1.930;2022-11-20T03:11:07;6.76;;;2.48;;
60641;SDS011;46837;52.446;-1.930;2022-11-20T03:12:07;7.08;;;3.12;;
60641;SDS011;46837;52.446;-1.930;2022-11-20T03:13:07;3.24;;;2.56;;
60641;SDS011;46837;52.446;-1.930;2022-11-20T03:14:07;3.62;;;2.46;;
60641;SDS011;46837;52.446;-1.930;2022-11-20T03:15:07;6.72;;;3.06;;
60641;SDS011;46837;52.446;-1.930;2022-11-20T03:16:08;5.06;;;2.74;;
60641;SDS011;46837;52.446;-1.930;2022-11-20T03:17:07;7.18;;;2.36;;
60641;SDS011;46837;52.446;-1.930;2022-11-20T03:18:07;7.46;;;2.64;;
60641;SDS011;46837;52.446;-1.930;2022-11-20T03:19:07;6.64;;;2.54;;
60641;SDS011;46837;52.446;-1.930;2022-11-20T03:20:07;4.12;;;3.02;;
60641;SDS011;46837;52.446;-1.930;2022-11-20T03:21:07;3.50;;;2.36;;
60641;SDS011;46837;52.446;-1.930;2022-11-20T03:22:07;2.66;;;1.88;;
60641;SDS011;46837;52.446;-1.930;2022-11-20T03:23:07;2.22;;;2.00;;
60641;SDS011;46837;52.446;-1.930;2022-11-20T03:24:07;4.42;;;2.48;;
60641;SDS011;46837;52.446;-1.930;2022-11-20T03:25:07;7.28;;;2.40;;
60641;SDS011;46837;52.446;-1.930;2022-11-20T03:26:16;6.38;;;2.64;;
60641;SDS011;46837;52.446;-1.930;2022-11-20T03:27:07;7.46;;;2.52;;
60641;SDS011;46837;52.446;-1.930;2022-11-20T03:28:07;5.92;;;3.04;;
60641;SDS011;46837;52.446;-1.930;2022-11-20T03:29:07;4.04;;;2.98;;
60641;SDS011;46837;52.446;-1.930;2022-11-20T03:30:07;3.66;;;2.16;;
60641;SDS011;46837;52.446;-1.930;2022-11-20T03:31:07;2.92;;;2.44;;
60641;SDS011;46837;52.446;-1.930;2022-11-20T03:32:07;6.02;;;3.26;;
60641;SDS011;46837;52.446;-1.930;2022-11-20T03:33:07;4.42;;;3.08;;
60641;SDS011;46837;52.446;-1.930;2022-11-20T03:34:07;5.42;;;3.44;;
60641;SDS011;46837;52.446;-1.930;2022-11-20T03:35:07;4.22;;;2.94;;
60641;SDS011;46837;52.446;-1.930;2022-11-20T03:36:08;9.36;;;3.42;;
60641;SDS011;46837;52.446;-1.930;2022-11-20T03:37:07;4.08;;;3.22;;
60641;SDS011;46837;52.446;-1.930;2022-11-20T03:38:07;5.58;;;2.78;;
60641;SDS011;46837;52.446;-1.930;2022-11-20T03:39:07;7.32;;;2.98;;
60641;SDS011;46837;52.446;-1.930;2022-11-20T03:40:07;2.70;;;2.42;;
60641;SDS011;46837;52.446;-1.930;2022-11-20T03:41:11;4.16;;;2.68;;
60641;SDS011;46837;52.446;-1.930;2022-11-20T03:42:11;6.46;;;3.30;;
60641;SDS011;46837;52.446;-1.930;2022-11-20T03:43:09;4.90;;;2.82;;
60641;SDS011;46837;52.446;-1.930;2022-11-20T03:44:08;8.00;;;3.42;;
60641;SDS011;46837;52.446;-1.930;2022-11-20T03:45:07;6.70;;;4.08;;
60641;SDS011;46837;52.446;-1.930;2022-11-20T03:46:07;6.68;;;4.88;;
60641;SDS011;46837;52.446;-1.930;2022-11-20T03:47:07;6.44;;;3.64;;
60641;SDS011;46837;52.446;-1.930;2022-11-20T03:48:07;6.14;;;4.04;;
60641;SDS011;46837;52.446;-1.930;2022-11-20T03:49:07;4.32;;;3.02;;
60641;SDS011;46837;52.446;-1.930;2022-11-20T03:50:07;6.28;;;3.26;;
60641;SDS011;46837;52.446;-1.930;2022-11-20T03:51:08;6.74;;;3.84;;
60641;SDS011;46837;52.446;-1.930;2022-11-20T03:52:07;6.42;;;4.64;;
60641;SDS011;46837;52.446;-1.930;2022-11-20T03:53:07;6.24;;;4.00;;
60641;SDS011;46837;52.446;-1.930;2022-11-20T03:54:07;6.38;;;3.40;;
60641;SDS011;46837;52.446;-1.930;2022-11-20T03:55:07;4.58;;;2.94;;
60641;SDS011;46837;52.446;-1.930;2022-11-20T03:56:07;5.38;;;3.26;;
60641;SDS011;46837;52.446;-1.930;2022-11-20T03:57:07;8.10;;;4.54;;
60641;SDS011;46837;52.446;-1.930;2022-11-20T03:58:07;4.98;;;3.70;;
60641;SDS011;46837;52.446;-1.930;2022-11-20T03:59:09;5.60;;;3.42;;
60641;SDS011;46837;52.446;-1.930;2022-11-20T04:00:07;5.78;;;4.16;;
60641;SDS011;46837;52.446;-1.930;2022-11-20T04:02:07;8.14;;;3.98;;
60641;SDS011;46837;52.446;-1.930;2022-11-20T04:03:07;4.72;;;3.50;;
60641;SDS011;46837;52.446;-1.930;2022-11-20T04:04:07;8.30;;;4.88;;
60641;SDS011;46837;52.446;-1.930;2022-11-20T04:05:07;8.78;;;4.30;;
60641;SDS011;46837;52.446;-1.930;2022-11-20T04:06:11;6.58;;;3.78;;
60641;SDS011;46837;52.446;-1.930;2022-11-20T04:07:07;5.96;;;3.48;;
60641;SDS011;46837;52.446;-1.930;2022-11-20T04:08:07;8.90;;;3.22;;
60641;SDS011;46837;52.446;-1.930;2022-11-20T04:09:07;5.26;;;3.72;;
60641;SDS011;46837;52.446;-1.930;2022-11-20T04:10:07;4.60;;;3.40;;
60641;SDS011;46837;52.446;-1.930;2022-11-20T04:11:10;4.42;;;3.30;;
60641;SDS011;46837;52.446;-1.930;2022-11-20T04:12:07;5.42;;;3.06;;
60641;SDS011;46837;52.446;-1.930;2022-11-20T04:13:07;5.36;;;3.98;;
60641;SDS011;46837;52.446;-1.930;2022-11-20T04:14:11;6.44;;;3.14;;
60641;SDS011;46837;52.446;-1.930;2022-11-20T04:15:07;5.56;;;3.74;;
60641;SDS011;46837;52.446;-1.930;2022-11-20T04:16:07;4.10;;;3.32;;
60641;SDS011;46837;52.446;-1.930;2022-11-20T04:17:07;3.26;;;2.96;;
60641;SDS011;46837;52.446;-1.930;2022-11-20T04:18:07;8.66;;;3.88;;
60641;SDS011;46837;52.446;-1.930;2022-11-20T04:19:09;6.12;;;3.42;;
60641;SDS011;46837;52.446;-1.930;2022-11-20T04:20:07;4.82;;;3.78;;
60641;SDS011;46837;52.446;-1.930;2022-11-20T04:21:07;4.72;;;3.64;;
60641;SDS011;46837;52.446;-1.930;2022-11-20T04:22:07;5.32;;;3.52;;
60641;SDS011;46837;52.446;-1.930;2022-11-20T04:23:07;8.70;;;4.52;;
60641;SDS011;46837;52.446;-1.930;2022-11-20T04:24:07;7.60;;;4.20;;
60641;SDS011;46837;52.446;-1.930;2022-11-20T04:25:07;6.78;;;4.28;;
60641;SDS011;46837;52.446;-1.930;2022-11-20T04:26:08;6.46;;;4.16;;
60641;SDS011;46837;52.446;-1.930;2022-11-20T04:27:07;4.84;;;3.96;;
60641;SDS011;46837;52.446;-1.930;2022-11-20T04:28:07;7.58;;;3.62;;
60641;SDS011;46837;52.446;-1.930;2022-11-20T04:29:09;6.50;;;3.64;;
60641;SDS011;46837;52.446;-1.930;2022-11-20T04:30:07;7.58;;;3.54;;
60641;SDS011;46837;52.446;-1.930;2022-11-20T04:32:07;5.82;;;3.82;;
60641;SDS011;46837;52.446;-1.930;2022-11-20T04:33:07;7.38;;;4.24;;
60641;SDS011;46837;52.446;-1.930;2022-11-20T04:34:07;9.94;;;4.30;;
60641;SDS011;46837;52.446;-1.930;2022-11-20T04:35:07;7.10;;;4.82;;
60641;SDS011;46837;52.446;-1.930;2022-11-20T04:36:10;4.32;;;3.52;;
60641;SDS011;46837;52.446;-1.930;2022-11-20T04:37:07;4.86;;;4.10;;
60641;SDS011;46837;52.446;-1.930;2022-11-20T04:38:07;5.90;;;4.08;;
60641;SDS011;46837;52.446;-1.930;2022-11-20T04:39:07;6.74;;;3.94;;
60641;SDS011;46837;52.446;-1.930;2022-11-20T04:40:07;4.74;;;3.86;;
60641;SDS011;46837;52.446;-1.930;2022-11-20T04:41:08;7.22;;;3.62;;
60641;SDS011;46837;52.446;-1.930;2022-11-20T04:42:11;4.26;;;3.70;;
60641;SDS011;46837;52.446;-1.930;2022-11-20T04:43:07;7.62;;;3.88;;
60641;SDS011;46837;52.446;-1.930;2022-11-20T04:44:07;7.44;;;3.66;;
60641;SDS011;46837;52.446;-1.930;2022-11-20T04:45:07;5.36;;;3.90;;
60641;SDS011;46837;52.446;-1.930;2022-11-20T04:46:07;5.04;;;3.30;;
60641;SDS011;46837;52.446;-1.930;2022-11-20T04:47:07;6.54;;;4.22;;
60641;SDS011;46837;52.446;-1.930;2022-11-20T04:48:07;4.50;;;3.94;;
60641;SDS011;46837;52.446;-1.930;2022-11-20T04:49:07;5.48;;;3.52;;
60641;SDS011;46837;52.446;-1.930;2022-11-20T04:50:07;3.66;;;3.22;;
60641;SDS011;46837;52.446;-1.930;2022-11-20T04:51:07;4.06;;;2.86;;
60641;SDS011;46837;52.446;-1.930;2022-11-20T04:52:07;4.38;;;2.50;;
60641;SDS011;46837;52.446;-1.930;2022-11-20T04:53:07;5.84;;;3.24;;
60641;SDS011;46837;52.446;-1.930;2022-11-20T04:54:07;3.70;;;3.04;;
60641;SDS011;46837;52.446;-1.930;2022-11-20T04:55:07;4.28;;;2.64;;
60641;SDS011;46837;52.446;-1.930;2022-11-20T04:56:07;5.80;;;2.52;;
60641;SDS011;46837;52.446;-1.930;2022-11-20T04:57:07;4.40;;;2.64;;
60641;SDS011;46837;52.446;-1.930;2022-11-20T04:58:07;3.72;;;2.28;;
60641;SDS011;46837;52.446;-1.930;2022-11-20T04:59:07;4.54;;;2.74;;
60641;SDS011;46837;52.446;-1.930;2022-11-20T05:00:07;4.34;;;3.16;;
60641;SDS011;46837;52.446;-1.930;2022-11-20T05:01:11;3.80;;;2.62;;
60641;SDS011;46837;52.446;-1.930;2022-11-20T05:02:07;3.08;;;2.72;;
60641;SDS011;46837;52.446;-1.930;2022-11-20T05:03:07;2.80;;;2.60;;
60641;SDS011;46837;52.446;-1.930;2022-11-20T05:04:07;5.08;;;3.14;;
60641;SDS011;46837;52.446;-1.930;2022-11-20T05:05:07;6.16;;;2.96;;
60641;SDS011;46837;52.446;-1.930;2022-11-20T05:06:07;2.46;;;2.26;;
60641;SDS011;46837;52.446;-1.930;2022-11-20T05:07:07;3.10;;;2.74;;
60641;SDS011;46837;52.446;-1.930;2022-11-20T05:08:07;2.46;;;2.26;;
60641;SDS011;46837;52.446;-1.930;2022-11-20T05:09:07;4.50;;;2.76;;
60641;SDS011;46837;52.446;-1.930;2022-11-20T05:10:07;3.92;;;2.62;;
60641;SDS011;46837;52.446;-1.930;2022-11-20T05:11:10;4.92;;;2.40;;
60641;SDS011;46837;52.446;-1.930;2022-11-20T05:12:07;3.54;;;2.74;;
60641;SDS011;46837;52.446;-1.930;2022-11-20T05:13:07;4.94;;;2.06;;
60641;SDS011;46837;52.446;-1.930;2022-11-20T05:14:07;3.80;;;2.82;;
60641;SDS011;46837;52.446;-1.930;2022-11-20T05:15:07;9.08;;;2.98;;
60641;SDS011;46837;52.446;-1.930;2022-11-20T05:16:08;5.66;;;2.56;;
60641;SDS011;46837;52.446;-1.930;2022-11-20T05:17:09;6.56;;;2.54;;
60641;SDS011;46837;52.446;-1.930;2022-11-20T05:18:07;9.30;;;2.64;;
60641;SDS011;46837;52.446;-1.930;2022-11-20T05:19:07;3.42;;;2.52;;
60641;SDS011;46837;52.446;-1.930;2022-11-20T05:20:07;2.92;;;2.40;;
60641;SDS011;46837;52.446;-1.930;2022-11-20T05:21:07;4.78;;;2.76;;
60641;SDS011;46837;52.446;-1.930;2022-11-20T05:22:07;9.06;;;2.54;;
60641;SDS011;46837;52.446;-1.930;2022-11-20T05:23:07;8.58;;;2.14;;
60641;SDS011;46837;52.446;-1.930;2022-11-20T05:24:07;3.10;;;2.14;;
60641;SDS011;46837;52.446;-1.930;2022-11-20T05:25:07;3.06;;;2.68;;
60641;SDS011;46837;52.446;-1.930;2022-11-20T05:26:08;4.02;;;2.28;;
60641;SDS011;46837;52.446;-1.930;2022-11-20T05:27:07;5.72;;;3.00;;
60641;SDS011;46837;52.446;-1.930;2022-11-20T05:28:07;3.02;;;2.30;;
60641;SDS011;46837;52.446;-1.930;2022-11-20T05:29:09;5.04;;;1.82;;
60641;SDS011;46837;52.446;-1.930;2022-11-20T05:30:07;5.08;;;2.40;;
60641;SDS011;46837;52.446;-1.930;2022-11-20T05:31:07;7.60;;;2.36;;
60641;SDS011;46837;52.446;-1.930;2022-11-20T05:32:08;5.66;;;2.56;;
60641;SDS011;46837;52.446;-1.930;2022-11-20T05:33:07;5.20;;;3.02;;
60641;SDS011;46837;52.446;-1.930;2022-11-20T05:34:07;6.38;;;2.50;;
60641;SDS011;46837;52.446;-1.930;2022-11-20T05:35:07;4.46;;;2.64;;
60641;SDS011;46837;52.446;-1.930;2022-11-20T05:36:07;4.46;;;2.04;;
60641;SDS011;46837;52.446;-1.930;2022-11-20T05:37:07;8.38;;;2.52;;
60641;SDS011;46837;52.446;-1.930;2022-11-20T05:38:07;6.82;;;2.24;;
60641;SDS011;46837;52.446;-1.930;2022-11-20T05:39:07;7.38;;;3.34;;
60641;SDS011;46837;52.446;-1.930;2022-11-20T05:40:07;6.80;;;2.74;;
60641;SDS011;46837;52.446;-1.930;2022-11-20T05:41:11;7.54;;;2.74;;
60641;SDS011;46837;52.446;-1.930;2022-11-20T05:42:11;9.64;;;2.80;;
60641;SDS011;46837;52.446;-1.930;2022-11-20T05:43:07;9.82;;;3.44;;
60641;SDS011;46837;52.446;-1.930;2022-11-20T05:44:07;3.94;;;1.86;;
60641;SDS011;46837;52.446;-1.930;2022-11-20T05:45:07;7.62;;;3.12;;
60641;SDS011;46837;52.446;-1.930;2022-11-20T05:46:07;6.62;;;3.00;;
60641;SDS011;46837;52.446;-1.930;2022-11-20T05:47:07;5.58;;;2.44;;
60641;SDS011;46837;52.446;-1.930;2022-11-20T05:48:07;9.82;;;2.84;;
60641;SDS011;46837;52.446;-1.930;2022-11-20T05:49:07;8.34;;;2.68;;
60641;SDS011;46837;52.446;-1.930;2022-11-20T05:50:07;25.32;;;2.70;;
60641;SDS011;46837;52.446;-1.930;2022-11-20T05:51:08;6.56;;;2.40;;
60641;SDS011;46837;52.446;-1.930;2022-11-20T05:52:07;7.26;;;2.18;;
60641;SDS011;46837;52.446;-1.930;2022-11-20T05:53:07;6.70;;;2.26;;
60641;SDS011;46837;52.446;-1.930;2022-11-20T05:54:07;5.80;;;2.68;;
60641;SDS011;46837;52.446;-1.930;2022-11-20T05:55:07;4.22;;;2.60;;
60641;SDS011;46837;52.446;-1.930;2022-11-20T05:56:08;8.58;;;2.56;;
60641;SDS011;46837;52.446;-1.930;2022-11-20T05:57:07;8.36;;;3.50;;
60641;SDS011;46837;52.446;-1.930;2022-11-20T05:58:07;3.72;;;2.92;;
60641;SDS011;46837;52.446;-1.930;2022-11-20T05:59:07;14.80;;;3.66;;
60641;SDS011;46837;52.446;-1.930;2022-11-20T06:00:07;12.26;;;4.54;;
60641;SDS011;46837;52.446;-1.930;2022-11-20T06:01:08;6.54;;;3.04;;
60641;SDS011;46837;52.446;-1.930;2022-11-20T06:02:07;10.94;;;3.38;;